sensor_id;sensor_type;location;lat;lon;timestamp;pressure;altitude;pressure_sealevel;temperature;humidity
51287;BME280;37364;46.974;18.916;2022-12-11T00:01:50;150737.31;;;1.53;100.00
51287;BME280;37364;46.974;18.916;2022-12-11T00:04:20;150715.47;;;1.44;100.00
51287;BME280;37364;46.974;18.916;2022-12-11T00:06:54;150725.75;;;1.48;100.00
51287;BME280;37364;46.974;18.916;2022-12-11T00:09:24;150701.34;;;1.38;100.00
51287;BME280;37364;46.974;18.916;2022-12-11T00:11:54;150694.91;;;1.36;100.00
51287;BME280;37364;46.974;18.916;2022-12-11T00:14:25;150694.91;;;1.36;100.00
51287;BME280;37364;46.974;18.916;2022-12-11T00:16:56;150693.66;;;1.35;100.00
51287;BME280;37364;46.974;18.916;2022-12-11T00:19:26;150682.03;;;1.31;100.00
51287;BME280;37364;46.974;18.916;2022-12-11T00:22:00;150676.91;;;1.29;100.00
51287;BME280;37364;46.974;18.916;2022-12-11T00:24:31;150680.78;;;1.30;100.00
51287;BME280;37364;46.974;18.916;2022-12-11T00:27:01;150652.47;;;1.19;100.00
51287;BME280;37364;46.974;18.916;2022-12-11T00:29:31;150680.78;;;1.30;100.00
51287;BME280;37364;46.974;18.916;2022-12-11T00:32:02;150664.06;;;1.24;100.00
51287;BME280;37364;46.974;18.916;2022-12-11T00:34:33;150656.34;;;1.21;100.00
51287;BME280;37364;46.974;18.916;2022-12-11T00:37:06;150656.34;;;1.21;100.00
51287;BME280;37364;46.974;18.916;2022-12-11T00:39:36;150646.06;;;1.16;100.00
51287;BME280;37364;46.974;18.916;2022-12-11T00:42:07;150656.34;;;1.21;100.00
51287;BME280;37364;46.974;18.916;2022-12-11T00:44:37;150647.34;;;1.17;100.00
51287;BME280;37364;46.974;18.916;2022-12-11T00:47:07;150660.22;;;1.22;100.00
51287;BME280;37364;46.974;18.916;2022-12-11T00:49:38;150644.78;;;1.16;100.00
51287;BME280;37364;46.974;18.916;2022-12-11T00:52:18;150656.34;;;1.21;100.00
51287;BME280;37364;46.974;18.916;2022-12-11T00:54:48;150639.66;;;1.14;100.00
51287;BME280;37364;46.974;18.916;2022-12-11T00:57:19;150640.94;;;1.14;100.00
51287;BME280;37364;46.974;18.916;2022-12-11T00:59:49;150639.66;;;1.14;100.00
51287;BME280;37364;46.974;18.916;2022-12-11T01:02:19;150657.63;;;1.21;100.00
51287;BME280;37364;46.974;18.916;2022-12-11T01:04:49;150625.50;;;1.08;100.00
51287;BME280;37364;46.974;18.916;2022-12-11T01:07:23;150617.78;;;1.05;100.00
51287;BME280;37364;46.974;18.916;2022-12-11T01:09:53;150620.38;;;1.06;100.00
51287;BME280;37364;46.974;18.916;2022-12-11T01:12:36;150607.50;;;1.01;100.00
51287;BME280;37364;46.974;18.916;2022-12-11T01:15:07;150613.91;;;1.04;100.00
51287;BME280;37364;46.974;18.916;2022-12-11T01:17:39;150597.22;;;0.97;100.00
51287;BME280;37364;46.974;18.916;2022-12-11T01:20:10;150599.75;;;0.98;100.00
51287;BME280;37364;46.974;18.916;2022-12-11T01:22:43;150590.81;;;0.94;100.00
51287;BME280;37364;46.974;18.916;2022-12-11T01:25:13;150585.66;;;0.92;100.00
51287;BME280;37364;46.974;18.916;2022-12-11T01:27:44;150588.22;;;0.93;100.00
51287;BME280;37364;46.974;18.916;2022-12-11T01:30:14;150576.66;;;0.89;100.00
51287;BME280;37364;46.974;18.916;2022-12-11T01:32:44;150580.53;;;0.90;100.00
51287;BME280;37364;46.974;18.916;2022-12-11T01:35:16;150548.38;;;0.77;100.00
51287;BME280;37364;46.974;18.916;2022-12-11T01:37:49;150538.09;;;0.73;100.00
51287;BME280;37364;46.974;18.916;2022-12-11T01:40:21;150530.38;;;0.70;100.00
51287;BME280;37364;46.974;18.916;2022-12-11T01:42:52;150523.94;;;0.68;100.00
51287;BME280;37364;46.974;18.916;2022-12-11T01:45:26;150504.69;;;0.60;100.00
51287;BME280;37364;46.974;18.916;2022-12-11T01:48:05;150500.81;;;0.58;100.00
51287;BME280;37364;46.974;18.916;2022-12-11T01:50:41;150476.41;;;0.49;100.00
51287;BME280;37364;46.974;18.916;2022-12-11T01:53:19;150458.44;;;0.42;100.00
51287;BME280;37364;46.974;18.916;2022-12-11T01:55:52;150448.16;;;0.37;100.00
51287;BME280;37364;46.974;18.916;2022-12-11T01:58:28;150430.16;;;0.30;100.00
51287;BME280;37364;46.974;18.916;2022-12-11T02:01:01;150409.63;;;0.22;100.00
51287;BME280;37364;46.974;18.916;2022-12-11T02:03:33;150399.34;;;0.18;100.00
51287;BME280;37364;46.974;18.916;2022-12-11T02:06:03;150405.75;;;0.21;100.00
51287;BME280;37364;46.974;18.916;2022-12-11T02:08:36;150382.63;;;0.11;100.00
51287;BME280;37364;46.974;18.916;2022-12-11T02:11:10;150365.94;;;0.05;100.00
51287;BME280;37364;46.974;18.916;2022-12-11T02:13:47;150355.69;;;0.01;100.00
51287;BME280;37364;46.974;18.916;2022-12-11T02:16:27;150346.69;;;-0.03;100.00
51287;BME280;37364;46.974;18.916;2022-12-11T02:19:03;150342.81;;;-0.05;100.00
51287;BME280;37364;46.974;18.916;2022-12-11T02:21:42;150318.41;;;-0.14;100.00
51287;BME280;37364;46.974;18.916;2022-12-11T02:24:32;150314.56;;;-0.16;100.00
51287;BME280;37364;46.974;18.916;2022-12-11T02:27:19;150314.56;;;-0.16;100.00
51287;BME280;37364;46.974;18.916;2022-12-11T02:29:56;150312.00;;;-0.17;100.00
51287;BME280;37364;46.974;18.916;2022-12-11T02:32:34;150310.72;;;-0.17;100.00
51287;BME280;37364;46.974;18.916;2022-12-11T02:35:11;150312.00;;;-0.17;100.00
51287;BME280;37364;46.974;18.916;2022-12-11T02:37:44;150315.88;;;-0.15;100.00
51287;BME280;37364;46.974;18.916;2022-12-11T02:40:20;150317.13;;;-0.15;100.00
51287;BME280;37364;46.974;18.916;2022-12-11T02:42:53;150312.00;;;-0.17;100.00
51287;BME280;37364;46.974;18.916;2022-12-11T02:45:28;150319.69;;;-0.14;100.00
51287;BME280;37364;46.974;18.916;2022-12-11T02:48:02;150312.00;;;-0.17;100.00
51287;BME280;37364;46.974;18.916;2022-12-11T02:50:35;150317.13;;;-0.15;100.00
51287;BME280;37364;46.974;18.916;2022-12-11T02:53:10;150319.69;;;-0.14;100.00
51287;BME280;37364;46.974;18.916;2022-12-11T02:55:42;150308.13;;;-0.18;100.00
51287;BME280;37364;46.974;18.916;2022-12-11T02:58:16;150308.13;;;-0.18;100.00
51287;BME280;37364;46.974;18.916;2022-12-11T03:00:50;150306.88;;;-0.19;100.00
51287;BME280;37364;46.974;18.916;2022-12-11T03:03:22;150303.00;;;-0.21;100.00
51287;BME280;37364;46.974;18.916;2022-12-11T03:05:52;150308.13;;;-0.18;100.00
51287;BME280;37364;46.974;18.916;2022-12-11T03:08:23;150304.28;;;-0.20;100.00
51287;BME280;37364;46.974;18.916;2022-12-11T03:10:53;150312.00;;;-0.17;100.00
51287;BME280;37364;46.974;18.916;2022-12-11T03:13:24;150314.56;;;-0.16;100.00
51287;BME280;37364;46.974;18.916;2022-12-11T03:16:05;150308.13;;;-0.18;100.00
51287;BME280;37364;46.974;18.916;2022-12-11T03:18:45;150309.41;;;-0.18;100.00
51287;BME280;37364;46.974;18.916;2022-12-11T03:21:23;150305.59;;;-0.19;100.00
51287;BME280;37364;46.974;18.916;2022-12-11T03:24:00;150322.28;;;-0.13;100.00
51287;BME280;37364;46.974;18.916;2022-12-11T03:26:38;150314.56;;;-0.16;100.00
51287;BME280;37364;46.974;18.916;2022-12-11T03:29:14;150327.41;;;-0.11;100.00
51287;BME280;37364;46.974;18.916;2022-12-11T03:31:51;150324.81;;;-0.12;100.00
51287;BME280;37364;46.974;18.916;2022-12-11T03:34:26;150337.69;;;-0.07;100.00
51287;BME280;37364;46.974;18.916;2022-12-11T03:36:59;150336.41;;;-0.07;100.00
51287;BME280;37364;46.974;18.916;2022-12-11T03:39:32;150347.94;;;-0.03;100.00
51287;BME280;37364;46.974;18.916;2022-12-11T03:42:05;150351.81;;;-0.01;100.00
51287;BME280;37364;46.974;18.916;2022-12-11T03:44:37;150353.09;;;-0.01;100.00
51287;BME280;37364;46.974;18.916;2022-12-11T03:47:13;150364.69;;;0.04;100.00
51287;BME280;37364;46.974;18.916;2022-12-11T03:49:46;150373.63;;;0.08;100.00
51287;BME280;37364;46.974;18.916;2022-12-11T03:52:17;150382.63;;;0.11;100.00
51287;BME280;37364;46.974;18.916;2022-12-11T03:54:49;150396.75;;;0.17;100.00
51287;BME280;37364;46.974;18.916;2022-12-11T03:57:21;150387.75;;;0.13;100.00
51287;BME280;37364;46.974;18.916;2022-12-11T03:59:54;150398.03;;;0.17;100.00
51287;BME280;37364;46.974;18.916;2022-12-11T04:02:30;150395.50;;;0.16;100.00
51287;BME280;37364;46.974;18.916;2022-12-11T04:05:01;150412.16;;;0.23;100.00
51287;BME280;37364;46.974;18.916;2022-12-11T04:07:32;150405.75;;;0.21;100.00
51287;BME280;37364;46.974;18.916;2022-12-11T04:10:03;150412.16;;;0.23;100.00
51287;BME280;37364;46.974;18.916;2022-12-11T04:12:33;150419.91;;;0.26;100.00
51287;BME280;37364;46.974;18.916;2022-12-11T04:15:04;150422.44;;;0.27;100.00
51287;BME280;37364;46.974;18.916;2022-12-11T04:17:42;150413.47;;;0.24;100.00
51287;BME280;37364;46.974;18.916;2022-12-11T04:20:25;150412.16;;;0.23;100.00
51287;BME280;37364;46.974;18.916;2022-12-11T04:23:11;150422.44;;;0.27;100.00
51287;BME280;37364;46.974;18.916;2022-12-11T04:26:03;150416.03;;;0.25;100.00
51287;BME280;37364;46.974;18.916;2022-12-11T04:28:34;150428.91;;;0.30;100.00
51287;BME280;37364;46.974;18.916;2022-12-11T04:31:05;150422.44;;;0.27;100.00
51287;BME280;37364;46.974;18.916;2022-12-11T04:33:39;150422.44;;;0.27;100.00
51287;BME280;37364;46.974;18.916;2022-12-11T04:36:10;150414.75;;;0.24;100.00
51287;BME280;37364;46.974;18.916;2022-12-11T04:38:41;150412.16;;;0.23;100.00
51287;BME280;37364;46.974;18.916;2022-12-11T04:41:13;150414.75;;;0.24;100.00
51287;BME280;37364;46.974;18.916;2022-12-11T04:43:44;150413.47;;;0.24;100.00
51287;BME280;37364;46.974;18.916;2022-12-11T04:46:16;150407.03;;;0.21;100.00
51287;BME280;37364;46.974;18.916;2022-12-11T04:48:50;150413.47;;;0.24;100.00
51287;BME280;37364;46.974;18.916;2022-12-11T04:51:24;150422.44;;;0.27;100.00
51287;BME280;37364;46.974;18.916;2022-12-11T04:54:01;150419.91;;;0.26;100.00
51287;BME280;37364;46.974;18.916;2022-12-11T04:56:31;150421.16;;;0.27;100.00
51287;BME280;37364;46.974;18.916;2022-12-11T04:59:01;150409.63;;;0.22;100.00
51287;BME280;37364;46.974;18.916;2022-12-11T05:01:31;150412.16;;;0.23;100.00
51287;BME280;37364;46.974;18.916;2022-12-11T05:04:04;150419.91;;;0.26;100.00
51287;BME280;37364;46.974;18.916;2022-12-11T05:06:35;150412.16;;;0.23;100.00
51287;BME280;37364;46.974;18.916;2022-12-11T05:09:05;150418.63;;;0.26;100.00
51287;BME280;37364;46.974;18.916;2022-12-11T05:11:35;150416.03;;;0.25;100.00
51287;BME280;37364;46.974;18.916;2022-12-11T05:14:05;150416.03;;;0.25;100.00
51287;BME280;37364;46.974;18.916;2022-12-11T05:16:35;150418.63;;;0.26;100.00
51287;BME280;37364;46.974;18.916;2022-12-11T05:19:09;150416.03;;;0.25;100.00
51287;BME280;37364;46.974;18.916;2022-12-11T05:21:39;150417.31;;;0.25;100.00
51287;BME280;37364;46.974;18.916;2022-12-11T05:24:10;150409.63;;;0.22;100.00
51287;BME280;37364;46.974;18.916;2022-12-11T05:26:40;150426.31;;;0.29;100.00
51287;BME280;37364;46.974;18.916;2022-12-11T05:29:10;150427.56;;;0.29;100.00
51287;BME280;37364;46.974;18.916;2022-12-11T05:31:40;150425.03;;;0.28;100.00
51287;BME280;37364;46.974;18.916;2022-12-11T05:34:13;150426.31;;;0.29;100.00
51287;BME280;37364;46.974;18.916;2022-12-11T05:36:43;150430.16;;;0.30;100.00
51287;BME280;37364;46.974;18.916;2022-12-11T05:39:14;150432.72;;;0.31;100.00
51287;BME280;37364;46.974;18.916;2022-12-11T05:41:44;150431.44;;;0.31;100.00
51287;BME280;37364;46.974;18.916;2022-12-11T05:44:14;150422.44;;;0.27;100.00
51287;BME280;37364;46.974;18.916;2022-12-11T05:46:44;150426.31;;;0.29;100.00
51287;BME280;37364;46.974;18.916;2022-12-11T05:49:18;150416.03;;;0.25;100.00
51287;BME280;37364;46.974;18.916;2022-12-11T05:51:56;150412.16;;;0.23;100.00
51287;BME280;37364;46.974;18.916;2022-12-11T05:54:26;150416.03;;;0.25;100.00
51287;BME280;37364;46.974;18.916;2022-12-11T05:56:57;150419.91;;;0.26;100.00
51287;BME280;37364;46.974;18.916;2022-12-11T05:59:27;150412.16;;;0.23;100.00
51287;BME280;37364;46.974;18.916;2022-12-11T06:01:57;150419.91;;;0.26;100.00
51287;BME280;37364;46.974;18.916;2022-12-11T06:04:30;150418.63;;;0.26;100.00
51287;BME280;37364;46.974;18.916;2022-12-11T06:07:00;150427.56;;;0.29;100.00
51287;BME280;37364;46.974;18.916;2022-12-11T06:09:30;150431.44;;;0.31;100.00
51287;BME280;37364;46.974;18.916;2022-12-11T06:12:01;150425.03;;;0.28;100.00
51287;BME280;37364;46.974;18.916;2022-12-11T06:14:31;150437.91;;;0.33;100.00
51287;BME280;37364;46.974;18.916;2022-12-11T06:17:01;150434.03;;;0.32;100.00
51287;BME280;37364;46.974;18.916;2022-12-11T06:19:35;150437.91;;;0.33;100.00
51287;BME280;37364;46.974;18.916;2022-12-11T06:22:05;150435.31;;;0.32;100.00
51287;BME280;37364;46.974;18.916;2022-12-11T06:24:35;150431.44;;;0.31;100.00
51287;BME280;37364;46.974;18.916;2022-12-11T06:27:06;150440.44;;;0.34;100.00
51287;BME280;37364;46.974;18.916;2022-12-11T06:29:36;150435.31;;;0.32;100.00
51287;BME280;37364;46.974;18.916;2022-12-11T06:32:06;150441.72;;;0.35;100.00
51287;BME280;37364;46.974;18.916;2022-12-11T06:34:39;150454.56;;;0.40;100.00
51287;BME280;37364;46.974;18.916;2022-12-11T06:37:09;150463.56;;;0.44;100.00
51287;BME280;37364;46.974;18.916;2022-12-11T06:39:40;150468.72;;;0.46;100.00
51287;BME280;37364;46.974;18.916;2022-12-11T06:42:10;150458.44;;;0.42;100.00
51287;BME280;37364;46.974;18.916;2022-12-11T06:44:40;150454.56;;;0.40;100.00
51287;BME280;37364;46.974;18.916;2022-12-11T06:47:11;150455.84;;;0.41;100.00
51287;BME280;37364;46.974;18.916;2022-12-11T06:49:43;150458.44;;;0.42;100.00
51287;BME280;37364;46.974;18.916;2022-12-11T06:52:14;150455.84;;;0.41;100.00
51287;BME280;37364;46.974;18.916;2022-12-11T06:54:44;150466.13;;;0.45;100.00
51287;BME280;37364;46.974;18.916;2022-12-11T06:57:14;150449.44;;;0.38;100.00
51287;BME280;37364;46.974;18.916;2022-12-11T06:59:45;150451.97;;;0.39;100.00
51287;BME280;37364;46.974;18.916;2022-12-11T07:02:17;150454.56;;;0.40;100.00
51287;BME280;37364;46.974;18.916;2022-12-11T07:04:51;150461.00;;;0.43;100.00
51287;BME280;37364;46.974;18.916;2022-12-11T07:07:21;150466.13;;;0.45;100.00
51287;BME280;37364;46.974;18.916;2022-12-11T07:09:51;150472.59;;;0.47;100.00
51287;BME280;37364;46.974;18.916;2022-12-11T07:12:22;150473.84;;;0.48;100.00
51287;BME280;37364;46.974;18.916;2022-12-11T07:14:52;150479.00;;;0.50;100.00
51287;BME280;37364;46.974;18.916;2022-12-11T07:17:22;150498.28;;;0.57;100.00
51287;BME280;37364;46.974;18.916;2022-12-11T07:19:55;150495.66;;;0.56;100.00
51287;BME280;37364;46.974;18.916;2022-12-11T07:22:27;150511.09;;;0.63;100.00
51287;BME280;37364;46.974;18.916;2022-12-11T07:24:58;150520.09;;;0.66;100.00
51287;BME280;37364;46.974;18.916;2022-12-11T07:27:28;150521.41;;;0.67;100.00
51287;BME280;37364;46.974;18.916;2022-12-11T07:29:58;150520.09;;;0.66;100.00
51287;BME280;37364;46.974;18.916;2022-12-11T07:32:28;150527.81;;;0.69;100.00
51287;BME280;37364;46.974;18.916;2022-12-11T07:35:01;150534.22;;;0.72;100.00
51287;BME280;37364;46.974;18.916;2022-12-11T07:37:32;150535.50;;;0.72;100.00
51287;BME280;37364;46.974;18.916;2022-12-11T07:40:05;150545.78;;;0.76;100.00
51287;BME280;37364;46.974;18.916;2022-12-11T07:42:37;150559.91;;;0.82;100.00
51287;BME280;37364;46.974;18.916;2022-12-11T07:45:12;150562.50;;;0.83;100.00
51287;BME280;37364;46.974;18.916;2022-12-11T07:47:59;150567.66;;;0.85;100.00
51287;BME280;37364;46.974;18.916;2022-12-11T07:50:35;150570.19;;;0.86;100.00
51287;BME280;37364;46.974;18.916;2022-12-11T07:53:08;150575.38;;;0.88;100.00
51287;BME280;37364;46.974;18.916;2022-12-11T07:55:39;150584.34;;;0.92;100.00
51287;BME280;37364;46.974;18.916;2022-12-11T07:58:11;150589.47;;;0.94;100.00
51287;BME280;37364;46.974;18.916;2022-12-11T08:00:46;150594.63;;;0.96;100.00
51287;BME280;37364;46.974;18.916;2022-12-11T08:03:19;150603.63;;;0.99;100.00
51287;BME280;37364;46.974;18.916;2022-12-11T08:05:52;150612.63;;;1.03;100.00
51287;BME280;37364;46.974;18.916;2022-12-11T08:08:25;150624.19;;;1.08;100.00
51287;BME280;37364;46.974;18.916;2022-12-11T08:10:59;150638.31;;;1.13;100.00
51287;BME280;37364;46.974;18.916;2022-12-11T08:13:30;150625.50;;;1.08;100.00
51287;BME280;37364;46.974;18.916;2022-12-11T08:16:02;150647.34;;;1.17;100.00
51287;BME280;37364;46.974;18.916;2022-12-11T08:18:34;150640.94;;;1.14;100.00
51287;BME280;37364;46.974;18.916;2022-12-11T08:21:08;150656.34;;;1.21;100.00
51287;BME280;37364;46.974;18.916;2022-12-11T08:23:40;150674.34;;;1.28;100.00
51287;BME280;37364;46.974;18.916;2022-12-11T08:26:12;150655.06;;;1.20;100.00
51287;BME280;37364;46.974;18.916;2022-12-11T08:28:44;150656.34;;;1.21;100.00
51287;BME280;37364;46.974;18.916;2022-12-11T08:31:15;150665.34;;;1.24;100.00
51287;BME280;37364;46.974;18.916;2022-12-11T08:33:47;150676.91;;;1.29;100.00
51287;BME280;37364;46.974;18.916;2022-12-11T08:36:21;150683.38;;;1.31;100.00
51287;BME280;37364;46.974;18.916;2022-12-11T08:38:53;150676.91;;;1.29;100.00
51287;BME280;37364;46.974;18.916;2022-12-11T08:41:25;150685.91;;;1.32;100.00
51287;BME280;37364;46.974;18.916;2022-12-11T08:43:57;150696.19;;;1.36;100.00
51287;BME280;37364;46.974;18.916;2022-12-11T08:46:28;150712.94;;;1.43;100.00
51287;BME280;37364;46.974;18.916;2022-12-11T08:49:02;150718.06;;;1.45;100.00
51287;BME280;37364;46.974;18.916;2022-12-11T08:51:36;150712.94;;;1.43;100.00
51287;BME280;37364;46.974;18.916;2022-12-11T08:54:08;150719.34;;;1.46;100.00
51287;BME280;37364;46.974;18.916;2022-12-11T08:56:38;150716.75;;;1.45;100.00
51287;BME280;37364;46.974;18.916;2022-12-11T08:59:08;150715.47;;;1.44;100.00
51287;BME280;37364;46.974;18.916;2022-12-11T09:01:38;150743.78;;;1.55;100.00
51287;BME280;37364;46.974;18.916;2022-12-11T09:04:09;150732.19;;;1.51;100.00
51287;BME280;37364;46.974;18.916;2022-12-11T09:06:41;150728.34;;;1.49;100.00
51287;BME280;37364;46.974;18.916;2022-12-11T09:09:11;150733.50;;;1.51;100.00
51287;BME280;37364;46.974;18.916;2022-12-11T09:11:42;150721.91;;;1.47;100.00
51287;BME280;37364;46.974;18.916;2022-12-11T09:14:12;150755.34;;;1.60;100.00
51287;BME280;37364;46.974;18.916;2022-12-11T09:16:42;150748.91;;;1.57;100.00
51287;BME280;37364;46.974;18.916;2022-12-11T09:19:13;150742.50;;;1.55;100.00
51287;BME280;37364;46.974;18.916;2022-12-11T09:21:47;150777.22;;;1.69;100.00
51287;BME280;37364;46.974;18.916;2022-12-11T09:24:17;150752.78;;;1.59;100.00
51287;BME280;37364;46.974;18.916;2022-12-11T09:26:48;150733.50;;;1.51;100.00
51287;BME280;37364;46.974;18.916;2022-12-11T09:29:18;150754.06;;;1.60;100.00
51287;BME280;37364;46.974;18.916;2022-12-11T09:31:48;150755.34;;;1.60;100.00
51287;BME280;37364;46.974;18.916;2022-12-11T09:34:19;150752.78;;;1.59;100.00
51287;BME280;37364;46.974;18.916;2022-12-11T09:36:57;150761.75;;;1.63;100.00
51287;BME280;37364;46.974;18.916;2022-12-11T09:39:28;150761.75;;;1.63;100.00
51287;BME280;37364;46.974;18.916;2022-12-11T09:42:03;150764.34;;;1.64;100.00
51287;BME280;37364;46.974;18.916;2022-12-11T09:44:40;150754.06;;;1.60;100.00
51287;BME280;37364;46.974;18.916;2022-12-11T09:47:19;150784.91;;;1.72;100.00
51287;BME280;37364;46.974;18.916;2022-12-11T09:49:55;150756.63;;;1.61;100.00
51287;BME280;37364;46.974;18.916;2022-12-11T09:52:33;150754.06;;;1.60;100.00
51287;BME280;37364;46.974;18.916;2022-12-11T09:55:12;150746.31;;;1.56;100.00
51287;BME280;37364;46.974;18.916;2022-12-11T09:57:49;150766.94;;;1.65;100.00
51287;BME280;37364;46.974;18.916;2022-12-11T10:00:28;150781.06;;;1.70;100.00
51287;BME280;37364;46.974;18.916;2022-12-11T10:03:29;150769.50;;;1.66;100.00
51287;BME280;37364;46.974;18.916;2022-12-11T10:06:06;150763.06;;;1.63;100.00
51287;BME280;37364;46.974;18.916;2022-12-11T10:08:51;150761.75;;;1.63;100.00
51287;BME280;37364;46.974;18.916;2022-12-11T10:11:38;150766.94;;;1.65;100.00
51287;BME280;37364;46.974;18.916;2022-12-11T10:14:27;150786.19;;;1.72;100.00
51287;BME280;37364;46.974;18.916;2022-12-11T10:17:03;150766.94;;;1.65;100.00
51287;BME280;37364;46.974;18.916;2022-12-11T10:19:36;150756.63;;;1.61;100.00
51287;BME280;37364;46.974;18.916;2022-12-11T10:22:12;150761.75;;;1.63;100.00
51287;BME280;37364;46.974;18.916;2022-12-11T10:24:54;150756.63;;;1.61;100.00
51287;BME280;37364;46.974;18.916;2022-12-11T10:27:40;150782.38;;;1.71;100.00
51287;BME280;37364;46.974;18.916;2022-12-11T10:30:15;150792.66;;;1.75;100.00
51287;BME280;37364;46.974;18.916;2022-12-11T10:32:51;150784.91;;;1.72;100.00
51287;BME280;37364;46.974;18.916;2022-12-11T10:35:34;150766.94;;;1.65;100.00
51287;BME280;37364;46.974;18.916;2022-12-11T10:38:12;150765.63;;;1.64;100.00
51287;BME280;37364;46.974;18.916;2022-12-11T10:40:50;150763.06;;;1.63;100.00
51287;BME280;37364;46.974;18.916;2022-12-11T10:43:31;150752.78;;;1.59;100.00
51287;BME280;37364;46.974;18.916;2022-12-11T10:46:02;150755.34;;;1.60;100.00
51287;BME280;37364;46.974;18.916;2022-12-11T10:48:33;150748.91;;;1.57;100.00
51287;BME280;37364;46.974;18.916;2022-12-11T10:51:11;150770.75;;;1.66;100.00
51287;BME280;37364;46.974;18.916;2022-12-11T10:53:42;150751.47;;;1.58;100.00
51287;BME280;37364;46.974;18.916;2022-12-11T10:56:24;150763.06;;;1.63;100.00
51287;BME280;37364;46.974;18.916;2022-12-11T10:58:57;150772.09;;;1.67;100.00
51287;BME280;37364;46.974;18.916;2022-12-11T11:01:30;150769.50;;;1.66;100.00
51287;BME280;37364;46.974;18.916;2022-12-11T11:04:03;150787.50;;;1.73;100.00
51287;BME280;37364;46.974;18.916;2022-12-11T11:06:34;150782.38;;;1.71;100.00
51287;BME280;37364;46.974;18.916;2022-12-11T11:09:27;150787.50;;;1.73;100.00
51287;BME280;37364;46.974;18.916;2022-12-11T11:12:01;150797.81;;;1.77;100.00
51287;BME280;37364;46.974;18.916;2022-12-11T11:14:34;150779.78;;;1.70;100.00
51287;BME280;37364;46.974;18.916;2022-12-11T11:17:04;150787.50;;;1.73;100.00
51287;BME280;37364;46.974;18.916;2022-12-11T11:19:35;150802.94;;;1.79;100.00
51287;BME280;37364;46.974;18.916;2022-12-11T11:22:10;150791.34;;;1.74;100.00
51287;BME280;37364;46.974;18.916;2022-12-11T11:24:43;150811.94;;;1.83;100.00
51287;BME280;37364;46.974;18.916;2022-12-11T11:27:25;150844.09;;;1.95;100.00
51287;BME280;37364;46.974;18.916;2022-12-11T11:29:58;150824.78;;;1.88;100.00
51287;BME280;37364;46.974;18.916;2022-12-11T11:32:31;150813.22;;;1.83;100.00
51287;BME280;37364;46.974;18.916;2022-12-11T11:35:21;150817.09;;;1.85;100.00
51287;BME280;37364;46.974;18.916;2022-12-11T11:38:00;150810.63;;;1.82;100.00
51287;BME280;37364;46.974;18.916;2022-12-11T11:40:37;150820.97;;;1.86;100.00
51287;BME280;37364;46.974;18.916;2022-12-11T11:43:17;150832.53;;;1.91;100.00
51287;BME280;37364;46.974;18.916;2022-12-11T11:45:52;150815.78;;;1.84;100.00
51287;BME280;37364;46.974;18.916;2022-12-11T11:48:31;150838.94;;;1.93;100.00
51287;BME280;37364;46.974;18.916;2022-12-11T11:51:15;150831.25;;;1.90;100.00
51287;BME280;37364;46.974;18.916;2022-12-11T11:53:50;150831.25;;;1.90;100.00
51287;BME280;37364;46.974;18.916;2022-12-11T11:56:22;150815.78;;;1.84;100.00
51287;BME280;37364;46.974;18.916;2022-12-11T11:59:07;150849.22;;;1.97;100.00
51287;BME280;37364;46.974;18.916;2022-12-11T12:01:41;150828.66;;;1.89;100.00
51287;BME280;37364;46.974;18.916;2022-12-11T12:04:12;150835.06;;;1.92;100.00
51287;BME280;37364;46.974;18.916;2022-12-11T12:06:57;150817.09;;;1.85;100.00
51287;BME280;37364;46.974;18.916;2022-12-11T12:09:37;150805.50;;;1.80;100.00
51287;BME280;37364;46.974;18.916;2022-12-11T12:12:17;150809.34;;;1.82;100.00
51287;BME280;37364;46.974;18.916;2022-12-11T12:15:21;150813.22;;;1.83;100.00
51287;BME280;37364;46.974;18.916;2022-12-11T12:17:56;150805.50;;;1.80;100.00
51287;BME280;37364;46.974;18.916;2022-12-11T12:20:34;150787.50;;;1.73;100.00
51287;BME280;37364;46.974;18.916;2022-12-11T12:23:21;150792.66;;;1.75;100.00
51287;BME280;37364;46.974;18.916;2022-12-11T12:26:07;150777.22;;;1.69;100.00
51287;BME280;37364;46.974;18.916;2022-12-11T12:28:45;150782.38;;;1.71;100.00
51287;BME280;37364;46.974;18.916;2022-12-11T12:31:31;150779.78;;;1.70;100.00
51287;BME280;37364;46.974;18.916;2022-12-11T12:34:13;150787.50;;;1.73;100.00
51287;BME280;37364;46.974;18.916;2022-12-11T12:36:50;150783.66;;;1.71;100.00
51287;BME280;37364;46.974;18.916;2022-12-11T12:39:32;150774.63;;;1.68;100.00
51287;BME280;37364;46.974;18.916;2022-12-11T12:42:10;150802.94;;;1.79;100.00
51287;BME280;37364;46.974;18.916;2022-12-11T12:44:56;150797.81;;;1.77;100.00
51287;BME280;37364;46.974;18.916;2022-12-11T12:47:31;150783.66;;;1.71;100.00
51287;BME280;37364;46.974;18.916;2022-12-11T12:50:10;150777.22;;;1.69;100.00
51287;BME280;37364;46.974;18.916;2022-12-11T12:52:44;150777.22;;;1.69;100.00
51287;BME280;37364;46.974;18.916;2022-12-11T12:55:20;150765.63;;;1.64;100.00
51287;BME280;37364;46.974;18.916;2022-12-11T12:57:54;150765.63;;;1.64;100.00
51287;BME280;37364;46.974;18.916;2022-12-11T13:00:28;150759.22;;;1.62;100.00
51287;BME280;37364;46.974;18.916;2022-12-11T13:03:12;150754.06;;;1.60;100.00
51287;BME280;37364;46.974;18.916;2022-12-11T13:05:44;150760.47;;;1.62;100.00
51287;BME280;37364;46.974;18.916;2022-12-11T13:08:24;150764.34;;;1.64;100.00
51287;BME280;37364;46.974;18.916;2022-12-11T13:11:02;150752.78;;;1.59;100.00
51287;BME280;37364;46.974;18.916;2022-12-11T13:13:35;150739.91;;;1.54;100.00